sensor_id;sensor_type;location;lat;lon;timestamp;pressure;altitude;pressure_sealevel;temperature;humidity
31183;BME280;17813;0.000;0.000;2022-09-09T00:02:10;99008.19;;;13.28;86.85
31183;BME280;17813;0.000;0.000;2022-09-09T00:04:42;99006.13;;;13.31;87.19
31183;BME280;17813;0.000;0.000;2022-09-09T00:07:55;99007.22;;;13.29;87.03
31183;BME280;17813;0.000;0.000;2022-09-09T00:16:26;99013.28;;;13.19;87.91
31183;BME280;17813;0.000;0.000;2022-09-09T00:21:14;99013.38;;;13.07;87.59
31183;BME280;17813;0.000;0.000;2022-09-09T00:23:50;99016.03;;;13.07;87.67
31183;BME280;17813;0.000;0.000;2022-09-09T00:26:42;99011.16;;;12.89;88.63
31183;BME280;17813;0.000;0.000;2022-09-09T00:29:33;99005.34;;;12.84;88.73
31183;BME280;17813;0.000;0.000;2022-09-09T00:32:17;99001.50;;;12.77;88.86
31183;BME280;17813;0.000;0.000;2022-09-09T00:34:55;99008.25;;;12.81;88.83
31183;BME280;17813;0.000;0.000;2022-09-09T00:37:25;99003.78;;;12.82;88.62
31183;BME280;17813;0.000;0.000;2022-09-09T00:39:57;99006.09;;;12.86;88.20
31183;BME280;17813;0.000;0.000;2022-09-09T00:42:43;99001.84;;;12.84;88.16
31183;BME280;17813;0.000;0.000;2022-09-09T00:47:52;99003.91;;;12.92;88.09
31183;BME280;17813;0.000;0.000;2022-09-09T00:50:50;99004.88;;;12.91;87.98
31183;BME280;17813;0.000;0.000;2022-09-09T00:58:33;98998.34;;;12.95;87.89
31183;BME280;17813;0.000;0.000;2022-09-09T01:01:10;99004.03;;;12.79;88.52
31183;BME280;17813;0.000;0.000;2022-09-09T01:03:54;98999.19;;;12.73;88.54
31183;BME280;17813;0.000;0.000;2022-09-09T01:06:35;99002.56;;;12.75;88.66
31183;BME280;17813;0.000;0.000;2022-09-09T01:12:03;98991.69;;;12.78;88.50
31183;BME280;17813;0.000;0.000;2022-09-09T01:17:26;98999.78;;;12.76;88.29
31183;BME280;17813;0.000;0.000;2022-09-09T01:20:12;99002.19;;;12.68;88.35
31183;BME280;17813;0.000;0.000;2022-09-09T01:23:28;99003.53;;;12.63;88.37
31183;BME280;17813;0.000;0.000;2022-09-09T01:28:31;98998.81;;;12.66;88.22
31183;BME280;17813;0.000;0.000;2022-09-09T01:31:05;98998.81;;;12.66;88.22
31183;BME280;17813;0.000;0.000;2022-09-09T01:33:33;98993.50;;;12.66;88.48
31183;BME280;17813;0.000;0.000;2022-09-09T01:36:06;98989.63;;;12.59;88.51
31183;BME280;17813;0.000;0.000;2022-09-09T01:38:35;98986.34;;;12.55;88.53
31183;BME280;17813;0.000;0.000;2022-09-09T01:41:05;98981.75;;;12.46;88.78
31183;BME280;17813;0.000;0.000;2022-09-09T01:43:33;98983.28;;;12.27;89.45
31183;BME280;17813;0.000;0.000;2022-09-09T01:46:01;98986.91;;;12.26;88.97
31183;BME280;17813;0.000;0.000;2022-09-09T01:48:31;98982.53;;;12.24;89.06
31183;BME280;17813;0.000;0.000;2022-09-09T01:50:59;98982.44;;;12.26;89.25
31183;BME280;17813;0.000;0.000;2022-09-09T01:53:28;98984.13;;;12.27;89.37
31183;BME280;17813;0.000;0.000;2022-09-09T01:56:05;98979.78;;;12.26;88.88
31183;BME280;17813;0.000;0.000;2022-09-09T02:04:27;98977.97;;;12.27;89.63
31183;BME280;17813;0.000;0.000;2022-09-09T02:07:00;98980.63;;;12.27;89.90
31183;BME280;17813;0.000;0.000;2022-09-09T02:09:31;98982.66;;;12.23;89.59
31183;BME280;17813;0.000;0.000;2022-09-09T02:12:09;98987.97;;;12.23;89.34
31183;BME280;17813;0.000;0.000;2022-09-09T02:14:43;98987.00;;;12.24;89.82
31183;BME280;17813;0.000;0.000;2022-09-09T02:17:13;98984.00;;;12.29;89.69
31183;BME280;17813;0.000;0.000;2022-09-09T02:19:52;98987.88;;;12.36;89.57
31183;BME280;17813;0.000;0.000;2022-09-09T02:22:23;98993.59;;;12.42;89.65
31183;BME280;17813;0.000;0.000;2022-09-09T02:24:52;98998.44;;;12.48;89.33
31183;BME280;17813;0.000;0.000;2022-09-09T02:27:22;98993.59;;;12.53;89.37
31183;BME280;17813;0.000;0.000;2022-09-09T02:29:50;98988.16;;;12.55;89.27
31183;BME280;17813;0.000;0.000;2022-09-09T02:32:24;98997.25;;;12.64;89.11
31183;BME280;17813;0.000;0.000;2022-09-09T02:35:14;98994.59;;;12.64;88.49
31183;BME280;17813;0.000;0.000;2022-09-09T02:37:44;98990.59;;;12.69;88.52
31183;BME280;17813;0.000;0.000;2022-09-09T02:40:15;98985.03;;;12.72;88.61
31183;BME280;17813;0.000;0.000;2022-09-09T02:42:47;98997.38;;;12.73;88.48
31183;BME280;17813;0.000;0.000;2022-09-09T02:45:18;98989.28;;;12.75;88.37
31183;BME280;17813;0.000;0.000;2022-09-09T02:47:54;98981.16;;;12.76;88.33
31183;BME280;17813;0.000;0.000;2022-09-09T02:50:33;98993.25;;;12.80;88.07
31183;BME280;17813;0.000;0.000;2022-09-09T02:56:15;98994.59;;;12.75;87.85
31183;BME280;17813;0.000;0.000;2022-09-09T02:58:43;98988.66;;;12.71;88.39
31183;BME280;17813;0.000;0.000;2022-09-09T03:01:12;98994.72;;;12.73;88.42
31183;BME280;17813;0.000;0.000;2022-09-09T03:03:39;98995.19;;;12.67;88.64
31183;BME280;17813;0.000;0.000;2022-09-09T03:06:08;98987.56;;;12.63;88.65
31183;BME280;17813;0.000;0.000;2022-09-09T03:08:36;98999.66;;;12.67;88.45
31183;BME280;17813;0.000;0.000;2022-09-09T03:11:03;98996.66;;;12.71;88.44
31183;BME280;17813;0.000;0.000;2022-09-09T03:13:31;98994.34;;;12.67;88.70
31183;BME280;17813;0.000;0.000;2022-09-09T03:16:00;99002.31;;;12.67;88.66
31183;BME280;17813;0.000;0.000;2022-09-09T03:18:31;99000.50;;;12.67;88.34
31183;BME280;17813;0.000;0.000;2022-09-09T03:20:58;98996.03;;;12.68;88.13
31183;BME280;17813;0.000;0.000;2022-09-09T03:23:28;98999.41;;;12.70;88.12
31183;BME280;17813;0.000;0.000;2022-09-09T03:26:04;99000.38;;;12.69;87.80
31183;BME280;17813;0.000;0.000;2022-09-09T03:28:33;98993.00;;;12.72;87.95
31183;BME280;17813;0.000;0.000;2022-09-09T03:31:01;98998.22;;;12.74;87.75
31183;BME280;17813;0.000;0.000;2022-09-09T03:33:30;99000.63;;;12.77;87.48
31183;BME280;17813;0.000;0.000;2022-09-09T03:36:21;98996.53;;;12.73;87.55
31183;BME280;17813;0.000;0.000;2022-09-09T03:38:48;98996.28;;;12.76;87.40
31183;BME280;17813;0.000;0.000;2022-09-09T03:41:17;98989.16;;;12.76;87.48
31183;BME280;17813;0.000;0.000;2022-09-09T03:43:45;98986.25;;;12.79;87.26
31183;BME280;17813;0.000;0.000;2022-09-09T03:46:17;98991.56;;;12.79;87.28
31183;BME280;17813;0.000;0.000;2022-09-09T03:48:47;98994.00;;;12.82;86.87
31183;BME280;17813;0.000;0.000;2022-09-09T03:51:15;98986.72;;;12.84;86.79
31183;BME280;17813;0.000;0.000;2022-09-09T03:53:43;98985.16;;;12.82;86.88
31183;BME280;17813;0.000;0.000;2022-09-09T03:56:10;98988.66;;;12.82;86.82
31183;BME280;17813;0.000;0.000;2022-09-09T03:58:37;98985.88;;;12.84;86.73
31183;BME280;17813;0.000;0.000;2022-09-09T04:01:09;98977.19;;;12.82;86.75
31183;BME280;17813;0.000;0.000;2022-09-09T04:03:42;98975.97;;;12.86;86.97
31183;BME280;17813;0.000;0.000;2022-09-09T04:06:17;98977.66;;;12.87;86.89
31183;BME280;17813;0.000;0.000;2022-09-09T04:08:45;98986.25;;;12.91;86.80
31183;BME280;17813;0.000;0.000;2022-09-09T04:11:16;98985.53;;;12.88;87.06
31183;BME280;17813;0.000;0.000;2022-09-09T04:13:44;98987.94;;;12.92;86.97
31183;BME280;17813;0.000;0.000;2022-09-09T04:16:16;98979.13;;;12.91;86.98
31183;BME280;17813;0.000;0.000;2022-09-09T04:18:47;98984.31;;;12.93;86.93
31183;BME280;17813;0.000;0.000;2022-09-09T04:21:17;98988.66;;;12.94;86.85
31183;BME280;17813;0.000;0.000;2022-09-09T04:23:44;98983.94;;;12.97;87.11
31183;BME280;17813;0.000;0.000;2022-09-09T04:26:10;98981.41;;;12.96;87.03
31183;BME280;17813;0.000;0.000;2022-09-09T04:28:41;98985.66;;;12.98;86.67
31183;BME280;17813;0.000;0.000;2022-09-09T04:31:23;98989.16;;;12.99;86.27
31183;BME280;17813;0.000;0.000;2022-09-09T04:34:05;98995.00;;;13.04;86.49
31183;BME280;17813;0.000;0.000;2022-09-09T04:36:54;98989.31;;;13.08;86.48
31183;BME280;17813;0.000;0.000;2022-09-09T04:39:26;98996.06;;;13.12;86.26
31183;BME280;17813;0.000;0.000;2022-09-09T04:42:00;98990.50;;;13.15;86.25
31183;BME280;17813;0.000;0.000;2022-09-09T04:44:32;98988.34;;;13.21;86.37
31183;BME280;17813;0.000;0.000;2022-09-09T04:47:20;98992.34;;;13.26;86.30
31183;BME280;17813;0.000;0.000;2022-09-09T04:49:47;98997.16;;;13.32;86.09
31183;BME280;17813;0.000;0.000;2022-09-09T04:52:15;98999.09;;;13.41;86.24
31183;BME280;17813;0.000;0.000;2022-09-09T04:54:45;98994.97;;;13.48;86.00
31183;BME280;17813;0.000;0.000;2022-09-09T04:57:16;98987.69;;;13.50;85.36
31183;BME280;17813;0.000;0.000;2022-09-09T04:59:50;98993.88;;;13.51;85.18
31183;BME280;17813;0.000;0.000;2022-09-09T05:02:17;98991.06;;;13.52;85.42
31183;BME280;17813;0.000;0.000;2022-09-09T05:04:53;98992.16;;;13.50;85.63
31183;BME280;17813;0.000;0.000;2022-09-09T05:07:27;98988.66;;;13.49;85.79
31183;BME280;17813;0.000;0.000;2022-09-09T05:10:03;98993.50;;;13.56;85.93
31183;BME280;17813;0.000;0.000;2022-09-09T05:12:31;98988.63;;;13.61;85.57
31183;BME280;17813;0.000;0.000;2022-09-09T05:14:59;98990.19;;;13.63;85.71
31183;BME280;17813;0.000;0.000;2022-09-09T05:17:26;98997.69;;;13.69;85.65
31183;BME280;17813;0.000;0.000;2022-09-09T05:19:59;99005.31;;;13.74;85.83
31183;BME280;17813;0.000;0.000;2022-09-09T05:22:38;99004.34;;;13.75;85.99
31183;BME280;17813;0.000;0.000;2022-09-09T05:25:17;98997.78;;;13.79;86.12
31183;BME280;17813;0.000;0.000;2022-09-09T05:28:10;98993.28;;;13.79;86.13
31183;BME280;17813;0.000;0.000;2022-09-09T05:31:01;99003.19;;;13.89;85.99
31183;BME280;17813;0.000;0.000;2022-09-09T05:33:54;99008.47;;;14.00;85.67
31183;BME280;17813;0.000;0.000;2022-09-09T05:36:24;99009.28;;;14.11;85.26
31183;BME280;17813;0.000;0.000;2022-09-09T05:38:51;99006.94;;;14.18;84.94
31183;BME280;17813;0.000;0.000;2022-09-09T05:41:21;99010.78;;;14.25;85.22
31183;BME280;17813;0.000;0.000;2022-09-09T05:43:52;99013.91;;;14.30;84.79
31183;BME280;17813;0.000;0.000;2022-09-09T05:46:24;99020.69;;;14.34;84.69
31183;BME280;17813;0.000;0.000;2022-09-09T05:48:52;99022.81;;;14.40;84.97
31183;BME280;17813;0.000;0.000;2022-09-09T05:51:25;99025.13;;;14.45;84.70
31183;BME280;17813;0.000;0.000;2022-09-09T05:53:53;99029.81;;;14.53;84.62
31183;BME280;17813;0.000;0.000;2022-09-09T05:56:28;99030.88;;;14.61;84.14
31183;BME280;17813;0.000;0.000;2022-09-09T05:59:16;99024.28;;;14.65;84.14
31183;BME280;17813;0.000;0.000;2022-09-09T06:02:03;99030.34;;;14.67;84.20
31183;BME280;17813;0.000;0.000;2022-09-09T06:04:34;99024.47;;;14.73;84.08
31183;BME280;17813;0.000;0.000;2022-09-09T06:07:05;99019.00;;;14.75;84.21
31183;BME280;17813;0.000;0.000;2022-09-09T06:10:11;99024.06;;;14.78;84.08
31183;BME280;17813;0.000;0.000;2022-09-09T06:13:04;99014.56;;;14.85;84.16
31183;BME280;17813;0.000;0.000;2022-09-09T06:15:33;99022.34;;;14.98;83.54
31183;BME280;17813;0.000;0.000;2022-09-09T06:18:22;99026.31;;;15.03;83.54
31183;BME280;17813;0.000;0.000;2022-09-09T06:21:27;99030.28;;;15.09;83.64
31183;BME280;17813;0.000;0.000;2022-09-09T06:24:11;99024.69;;;15.22;82.93
31183;BME280;17813;0.000;0.000;2022-09-09T06:27:01;99018.69;;;15.29;82.65
31183;BME280;17813;0.000;0.000;2022-09-09T06:29:49;99012.94;;;15.34;82.46
31183;BME280;17813;0.000;0.000;2022-09-09T06:32:16;99020.97;;;15.43;82.03
31183;BME280;17813;0.000;0.000;2022-09-09T06:34:55;99012.69;;;15.47;81.92
31183;BME280;17813;0.000;0.000;2022-09-09T06:37:45;99017.19;;;15.46;81.30
31183;BME280;17813;0.000;0.000;2022-09-09T06:40:28;99022.00;;;15.52;81.26
31183;BME280;17813;0.000;0.000;2022-09-09T06:43:01;99027.06;;;15.55;80.59
31183;BME280;17813;0.000;0.000;2022-09-09T06:45:58;99022.13;;;15.51;80.73
31183;BME280;17813;0.000;0.000;2022-09-09T06:48:46;99020.88;;;15.55;80.69
31183;BME280;17813;0.000;0.000;2022-09-09T06:51:51;99029.59;;;15.57;80.72
31183;BME280;17813;0.000;0.000;2022-09-09T06:54:36;99016.88;;;15.60;80.37
31183;BME280;17813;0.000;0.000;2022-09-09T06:57:33;99019.00;;;15.66;80.21
31183;BME280;17813;0.000;0.000;2022-09-09T07:00:10;99021.94;;;15.73;79.85
31183;BME280;17813;0.000;0.000;2022-09-09T07:02:38;99024.06;;;15.79;79.99
31183;BME280;17813;0.000;0.000;2022-09-09T07:05:06;99027.59;;;15.89;79.85
31183;BME280;17813;0.000;0.000;2022-09-09T07:07:34;99024.09;;;15.98;79.53
31183;BME280;17813;0.000;0.000;2022-09-09T07:10:06;99029.03;;;16.13;79.16
31183;BME280;17813;0.000;0.000;2022-09-09T07:12:41;99020.16;;;16.31;78.60
31183;BME280;17813;0.000;0.000;2022-09-09T07:15:23;99014.06;;;16.58;78.34
31183;BME280;17813;0.000;0.000;2022-09-09T07:18:19;99017.94;;;16.93;75.70
31183;BME280;17813;0.000;0.000;2022-09-09T07:21:08;99013.75;;;17.45;75.68
31183;BME280;17813;0.000;0.000;2022-09-09T07:23:48;98998.38;;;18.10;73.12
31183;BME280;17813;0.000;0.000;2022-09-09T07:26:23;99000.91;;;18.65;71.06
31183;BME280;17813;0.000;0.000;2022-09-09T07:28:53;99010.03;;;18.72;69.97
31183;BME280;17813;0.000;0.000;2022-09-09T07:31:35;99009.50;;;18.51;70.85
31183;BME280;17813;0.000;0.000;2022-09-09T07:34:03;99013.28;;;18.40;71.85
31183;BME280;17813;0.000;0.000;2022-09-09T07:36:39;99016.50;;;18.26;70.97
31183;BME280;17813;0.000;0.000;2022-09-09T07:39:13;99012.13;;;18.25;72.37
31183;BME280;17813;0.000;0.000;2022-09-09T07:41:45;99017.88;;;18.30;72.11
31183;BME280;17813;0.000;0.000;2022-09-09T07:44:20;99020.78;;;18.37;72.15
31183;BME280;17813;0.000;0.000;2022-09-09T07:46:52;99007.13;;;18.48;71.90
31183;BME280;17813;0.000;0.000;2022-09-09T07:49:19;99012.56;;;18.56;71.83
31183;BME280;17813;0.000;0.000;2022-09-09T07:51:52;99021.53;;;18.65;71.15
31183;BME280;17813;0.000;0.000;2022-09-09T07:54:21;99029.50;;;18.74;70.44
31183;BME280;17813;0.000;0.000;2022-09-09T07:56:53;99028.50;;;19.01;70.79
31183;BME280;17813;0.000;0.000;2022-09-09T07:59:38;99036.50;;;19.19;69.95
31183;BME280;17813;0.000;0.000;2022-09-09T08:02:25;99035.75;;;19.43;69.38
31183;BME280;17813;0.000;0.000;2022-09-09T08:04:57;99026.31;;;19.65;68.39
31183;BME280;17813;0.000;0.000;2022-09-09T08:07:26;99029.56;;;19.84;68.42
31183;BME280;17813;0.000;0.000;2022-09-09T08:10:03;99021.84;;;19.98;68.20
31183;BME280;17813;0.000;0.000;2022-09-09T08:12:39;99028.91;;;19.99;67.35
31183;BME280;17813;0.000;0.000;2022-09-09T08:15:13;99020.84;;;19.99;67.14
31183;BME280;17813;0.000;0.000;2022-09-09T08:17:56;99030.25;;;19.95;67.41
31183;BME280;17813;0.000;0.000;2022-09-09T08:20:24;99032.78;;;20.04;67.37
31183;BME280;17813;0.000;0.000;2022-09-09T08:22:52;99030.56;;;19.91;65.17
31183;BME280;17813;0.000;0.000;2022-09-09T08:25:25;99026.91;;;20.01;65.88
31183;BME280;17813;0.000;0.000;2022-09-09T08:27:55;99031.97;;;20.28;65.61
31183;BME280;17813;0.000;0.000;2022-09-09T08:30:31;99029.66;;;20.58;63.97
31183;BME280;17813;0.000;0.000;2022-09-09T08:32:59;99032.34;;;20.90;62.63
31183;BME280;17813;0.000;0.000;2022-09-09T08:35:26;99029.44;;;21.16;61.91
31183;BME280;17813;0.000;0.000;2022-09-09T08:38:19;99033.25;;;21.38;60.61
31183;BME280;17813;0.000;0.000;2022-09-09T08:40:53;99032.50;;;21.60;59.31
31183;BME280;17813;0.000;0.000;2022-09-09T08:43:31;99032.06;;;22.33;59.94
31183;BME280;17813;0.000;0.000;2022-09-09T08:46:21;99032.84;;;23.32;56.77
31183;BME280;17813;0.000;0.000;2022-09-09T08:49:37;99027.94;;;23.65;53.23
31183;BME280;17813;0.000;0.000;2022-09-09T08:52:36;99031.22;;;23.96;54.15
31183;BME280;17813;0.000;0.000;2022-09-09T08:57:46;99035.59;;;25.67;51.03
31183;BME280;17813;0.000;0.000;2022-09-09T09:06:50;99028.59;;;30.49;41.37
31183;BME280;17813;0.000;0.000;2022-09-09T09:12:25;99014.16;;;32.96;38.27
31183;BME280;17813;0.000;0.000;2022-09-09T09:14:53;99025.41;;;32.78;33.95
31183;BME280;17813;0.000;0.000;2022-09-09T09:17:25;99029.63;;;32.85;36.06
31183;BME280;17813;0.000;0.000;2022-09-09T09:19:54;99023.75;;;33.88;35.89
31183;BME280;17813;0.000;0.000;2022-09-09T09:22:50;99021.56;;;34.38;31.31
31183;BME280;17813;0.000;0.000;2022-09-09T09:25:26;99025.28;;;34.00;31.10
31183;BME280;17813;0.000;0.000;2022-09-09T09:30:42;99026.13;;;35.19;32.08
31183;BME280;17813;0.000;0.000;2022-09-09T09:35:52;99035.75;;;36.26;30.77
31183;BME280;17813;0.000;0.000;2022-09-09T09:38:26;99030.16;;;36.00;28.85
31183;BME280;17813;0.000;0.000;2022-09-09T09:40:58;99024.03;;;35.88;31.20
31183;BME280;17813;0.000;0.000;2022-09-09T09:43:35;99026.97;;;35.66;29.39
31183;BME280;17813;0.000;0.000;2022-09-09T09:46:18;99027.03;;;34.92;30.07
31183;BME280;17813;0.000;0.000;2022-09-09T09:48:57;99020.78;;;33.34;30.86
31183;BME280;17813;0.000;0.000;2022-09-09T09:51:24;99029.53;;;32.64;33.05
31183;BME280;17813;0.000;0.000;2022-09-09T09:53:54;99025.13;;;31.77;32.49
31183;BME280;17813;0.000;0.000;2022-09-09T09:56:28;99028.81;;;30.78;34.24
31183;BME280;17813;0.000;0.000;2022-09-09T09:59:01;99034.19;;;30.13;35.30
31183;BME280;17813;0.000;0.000;2022-09-09T10:01:40;99034.19;;;29.39;35.90
31183;BME280;17813;0.000;0.000;2022-09-09T10:04:17;99034.25;;;29.15;36.78
31183;BME280;17813;0.000;0.000;2022-09-09T10:06:47;99032.94;;;28.67;37.35
31183;BME280;17813;0.000;0.000;2022-09-09T10:09:29;99035.34;;;28.12;37.96
31183;BME280;17813;0.000;0.000;2022-09-09T10:17:54;99024.41;;;28.89;38.28
31183;BME280;17813;0.000;0.000;2022-09-09T10:20:59;99024.66;;;28.80;37.90
31183;BME280;17813;0.000;0.000;2022-09-09T10:26:48;99016.22;;;28.57;37.39
31183;BME280;17813;0.000;0.000;2022-09-09T10:35:14;99015.56;;;28.62;36.93
31183;BME280;17813;0.000;0.000;2022-09-09T10:38:12;99017.03;;;29.87;36.69
31183;BME280;17813;0.000;0.000;2022-09-09T10:55:43;99030.56;;;28.46;37.92
31183;BME280;17813;0.000;0.000;2022-09-09T10:58:24;99012.75;;;28.43;36.54
31183;BME280;17813;0.000;0.000;2022-09-09T11:01:01;99016.75;;;28.72;37.79
31183;BME280;17813;0.000;0.000;2022-09-09T11:03:41;99012.06;;;28.79;35.73
31183;BME280;17813;0.000;0.000;2022-09-09T11:06:19;99023.63;;;28.12;35.86
31183;BME280;17813;0.000;0.000;2022-09-09T11:08:47;99015.13;;;28.33;37.24
31183;BME280;17813;0.000;0.000;2022-09-09T11:11:29;99001.28;;;28.60;38.26
31183;BME280;17813;0.000;0.000;2022-09-09T11:17:01;99001.19;;;28.48;36.39
31183;BME280;17813;0.000;0.000;2022-09-09T11:19:45;98996.34;;;28.12;37.43
31183;BME280;17813;0.000;0.000;2022-09-09T11:22:28;98998.03;;;27.75;36.98
31183;BME280;17813;0.000;0.000;2022-09-09T11:25:08;99000.00;;;27.48;37.79
31183;BME280;17813;0.000;0.000;2022-09-09T11:33:58;98974.94;;;27.84;40.41
31183;BME280;17813;0.000;0.000;2022-09-09T11:42:04;98971.13;;;28.55;38.25
31183;BME280;17813;0.000;0.000;2022-09-09T11:44:41;98971.75;;;28.25;38.03
31183;BME280;17813;0.000;0.000;2022-09-09T11:47:29;98969.69;;;27.82;37.37
31183;BME280;17813;0.000;0.000;2022-09-09T11:50:28;98974.06;;;27.32;38.67
31183;BME280;17813;0.000;0.000;2022-09-09T11:53:24;98977.03;;;27.24;39.91
31183;BME280;17813;0.000;0.000;2022-09-09T11:59:06;98962.78;;;27.80;39.26
31183;BME280;17813;0.000;0.000;2022-09-09T12:01:49;98955.06;;;27.77;38.39
31183;BME280;17813;0.000;0.000;2022-09-09T12:10:05;98966.81;;;27.13;39.96
31183;BME280;17813;0.000;0.000;2022-09-09T12:12:42;98960.72;;;27.17;38.97
31183;BME280;17813;0.000;0.000;2022-09-09T12:15:23;98958.63;;;27.19;40.02
31183;BME280;17813;0.000;0.000;2022-09-09T12:17:56;98953.56;;;27.30;40.31
31183;BME280;17813;0.000;0.000;2022-09-09T12:20:32;98943.44;;;27.50;41.16
31183;BME280;17813;0.000;0.000;2022-09-09T12:32:24;98929.56;;;27.65;38.92
31183;BME280;17813;0.000;0.000;2022-09-09T12:34:49;98921.56;;;27.70;37.92
31183;BME280;17813;0.000;0.000;2022-09-09T12:37:49;98911.91;;;27.74;38.50
31183;BME280;17813;0.000;0.000;2022-09-09T12:40:29;98916.19;;;27.50;37.08
31183;BME280;17813;0.000;0.000;2022-09-09T12:42:58;98922.31;;;27.39;38.83
31183;BME280;17813;0.000;0.000;2022-09-09T12:45:32;98918.31;;;27.41;38.63
31183;BME280;17813;0.000;0.000;2022-09-09T12:48:08;98915.84;;;27.33;38.03
31183;BME280;17813;0.000;0.000;2022-09-09T12:50:49;98909.84;;;27.18;37.27
31183;BME280;17813;0.000;0.000;2022-09-09T12:53:26;98919.69;;;27.19;39.40
31183;BME280;17813;0.000;0.000;2022-09-09T12:56:06;98917.38;;;27.22;38.68
31183;BME280;17813;0.000;0.000;2022-09-09T12:58:38;98911.94;;;27.16;38.79
31183;BME280;17813;0.000;0.000;2022-09-09T13:01:26;98917.25;;;26.98;39.06
31183;BME280;17813;0.000;0.000;2022-09-09T13:03:55;98916.00;;;26.67;38.50
31183;BME280;17813;0.000;0.000;2022-09-09T13:06:25;98914.56;;;26.51;38.35
31183;BME280;17813;0.000;0.000;2022-09-09T13:09:00;98926.50;;;26.44;38.55
31183;BME280;17813;0.000;0.000;2022-09-09T13:11:41;98934.44;;;26.39;37.85
31183;BME280;17813;0.000;0.000;2022-09-09T13:14:36;98931.69;;;26.19;38.59
31183;BME280;17813;0.000;0.000;2022-09-09T13:17:17;98936.09;;;26.26;38.60
31183;BME280;17813;0.000;0.000;2022-09-09T13:19:45;98931.91;;;26.24;38.59
31183;BME280;17813;0.000;0.000;2022-09-09T13:22:20;98929.84;;;26.33;39.52
31183;BME280;17813;0.000;0.000;2022-09-09T13:25:13;98924.81;;;26.49;40.45
31183;BME280;17813;0.000;0.000;2022-09-09T13:28:04;98917.69;;;26.68;38.96
31183;BME280;17813;0.000;0.000;2022-09-09T13:30:34;98921.66;;;26.66;39.38
31183;BME280;17813;0.000;0.000;2022-09-09T13:36:07;98927.13;;;26.39;38.99
31183;BME280;17813;0.000;0.000;2022-09-09T13:38:54;98912.03;;;26.17;39.96
31183;BME280;17813;0.000;0.000;2022-09-09T13:41:25;98916.84;;;26.02;39.94
31183;BME280;17813;0.000;0.000;2022-09-09T13:43:56;98917.59;;;25.82;39.96
31183;BME280;17813;0.000;0.000;2022-09-09T13:51:40;98926.25;;;25.45;40.09
31183;BME280;17813;0.000;0.000;2022-09-09T13:54:13;98928.88;;;25.25;40.06
31183;BME280;17813;0.000;0.000;2022-09-09T13:56:42;98934.00;;;25.07;40.54
31183;BME280;17813;0.000;0.000;2022-09-09T13:59:14;98940.56;;;24.91;41.16
31183;BME280;17813;0.000;0.000;2022-09-09T14:01:42;98930.88;;;24.75;41.28
31183;BME280;17813;0.000;0.000;2022-09-09T14:04:12;98936.25;;;24.68;41.27
31183;BME280;17813;0.000;0.000;2022-09-09T14:06:45;98932.59;;;24.55;41.36
31183;BME280;17813;0.000;0.000;2022-09-09T14:09:15;98930.31;;;24.30;41.78
31183;BME280;17813;0.000;0.000;2022-09-09T14:11:44;98921.28;;;24.23;41.98
31183;BME280;17813;0.000;0.000;2022-09-09T14:14:14;98920.31;;;24.10;42.60
31183;BME280;17813;0.000;0.000;2022-09-09T14:16:47;98905.22;;;24.00;42.95
31183;BME280;17813;0.000;0.000;2022-09-09T14:19:17;98903.03;;;23.89;43.05
31183;BME280;17813;0.000;0.000;2022-09-09T14:21:46;98903.44;;;23.86;43.38
31183;BME280;17813;0.000;0.000;2022-09-09T14:24:13;98906.34;;;23.85;43.40
31183;BME280;17813;0.000;0.000;2022-09-09T14:26:45;98904.28;;;23.87;43.78
31183;BME280;17813;0.000;0.000;2022-09-09T14:29:13;98908.13;;;23.99;43.55
31183;BME280;17813;0.000;0.000;2022-09-09T14:31:40;98918.63;;;24.09;43.07
31183;BME280;17813;0.000;0.000;2022-09-09T14:34:12;98916.44;;;24.19;42.90
31183;BME280;17813;0.000;0.000;2022-09-09T14:36:44;98916.38;;;24.33;42.59
31183;BME280;17813;0.000;0.000;2022-09-09T14:39:12;98917.81;;;24.29;42.54
31183;BME280;17813;0.000;0.000;2022-09-09T14:41:42;98926.00;;;24.36;42.74
31183;BME280;17813;0.000;0.000;2022-09-09T14:44:10;98926.78;;;24.30;42.92
31183;BME280;17813;0.000;0.000;2022-09-09T14:46:37;98932.94;;;24.24;43.15
31183;BME280;17813;0.000;0.000;2022-09-09T14:49:06;98937.53;;;24.23;43.18
31183;BME280;17813;0.000;0.000;2022-09-09T14:51:37;98948.72;;;24.35;43.14
31183;BME280;17813;0.000;0.000;2022-09-09T14:54:06;98941.53;;;24.49;42.59
31183;BME280;17813;0.000;0.000;2022-09-09T14:56:34;98945.41;;;24.40;42.29
31183;BME280;17813;0.000;0.000;2022-09-09T14:59:03;98962.44;;;24.33;42.93
31183;BME280;17813;0.000;0.000;2022-09-09T15:01:30;98965.22;;;24.40;41.86
31183;BME280;17813;0.000;0.000;2022-09-09T15:04:02;98974.63;;;24.23;41.21
31183;BME280;17813;0.000;0.000;2022-09-09T15:06:35;98968.63;;;24.06;41.53
31183;BME280;17813;0.000;0.000;2022-09-09T15:09:08;98968.44;;;24.08;42.04
31183;BME280;17813;0.000;0.000;2022-09-09T15:11:39;98976.44;;;24.16;41.64
31183;BME280;17813;0.000;0.000;2022-09-09T15:14:08;98963.47;;;24.11;41.84
31183;BME280;17813;0.000;0.000;2022-09-09T15:16:38;98963.06;;;24.14;42.42
31183;BME280;17813;0.000;0.000;2022-09-09T15:19:08;98962.09;;;24.22;42.59
31183;BME280;17813;0.000;0.000;2022-09-09T15:21:36;98952.88;;;24.16;42.73
31183;BME280;17813;0.000;0.000;2022-09-09T15:24:07;98960.63;;;23.98;42.31
31183;BME280;17813;0.000;0.000;2022-09-09T15:26:41;98960.50;;;23.85;42.65
31183;BME280;17813;0.000;0.000;2022-09-09T15:29:10;98968.16;;;23.81;42.85
31183;BME280;17813;0.000;0.000;2022-09-09T15:31:47;98950.81;;;23.76;42.95
31183;BME280;17813;0.000;0.000;2022-09-09T15:34:16;98952.06;;;23.58;42.83
31183;BME280;17813;0.000;0.000;2022-09-09T15:36:51;98955.69;;;23.51;43.43
31183;BME280;17813;0.000;0.000;2022-09-09T15:39:23;98950.84;;;23.46;42.70
31183;BME280;17813;0.000;0.000;2022-09-09T15:41:51;98953.38;;;23.33;42.31
31183;BME280;17813;0.000;0.000;2022-09-09T15:44:21;98963.63;;;23.23;42.11
31183;BME280;17813;0.000;0.000;2022-09-09T15:46:53;98954.78;;;23.14;42.29
31183;BME280;17813;0.000;0.000;2022-09-09T15:49:22;98943.50;;;23.10;42.59
31183;BME280;17813;0.000;0.000;2022-09-09T15:51:58;98944.72;;;23.08;43.04
31183;BME280;17813;0.000;0.000;2022-09-09T15:54:36;98942.56;;;23.03;43.51
31183;BME280;17813;0.000;0.000;2022-09-09T15:57:10;98941.44;;;22.98;44.36